Worthington, PA

9:07 PM EDT on July 28, 2016 (GMT -0400)
North Buffalo Twp | | Change Station

Elev 1339 ft 40.78 °N, 79.60 °W | Updated 5 minutes ago

Clear
Clear
70.2 °F
Feels Like 70.2 °F
N
0.0
Wind Variable Wind from ESE

Today
High -- | Low -- °F
--% Chance of Precip.
Yesterday
High -- | Low -- °F
Precip. -- in
Pressure 29.95 in
Visibility 10.0 miles
Clouds Clear
Dew Point 66 °F
Humidity 87%
Rainfall 0.04 in
Snow Depth Not available.
6:11 AM 8:37 PM
Waning Crescent, 27% visible
METAR KBTP 290055Z AUTO 00000KT 10SM CLR 21/18 A2995 RMK AO1
Pressure 29.95 in
Visibility 10.0 miles
Clouds Clear
Dew Point 66 °F
Humidity 87%
Rainfall 0.04 in
Snow Depth Not available.
6:11 AM 8:37 PM
Waning Crescent, 27% visible
METAR KBTP 290055Z AUTO 00000KT 10SM CLR 21/18 A2995 RMK AO1

10-Day Weather Forecast

Almanac

Astronomy

Jul. 28, 2016 Rise Set
Actual Time
Civil Twilight
Nautical Twilight
Astronomical Twilight
Moon
Length of Visible Light
Length of Day
Tomorrow will be .
, % of the Moon is Illuminated

Today's Extremes

State Highs State Lows

Community

WunderPhotos

Upload Photos

1,928,242 photos uploaded!

WunderBlog® & News

Nearby

Air Quality

  Air Quality AQ Index Pollutant
Not available.

Snow Depth

Station Depth Elevation

Earthquake Activity

City Distance Mag. Time & Date
Minimum magnitude displayed is 2.5.

Coastal Water Temperatures

Place Temperature

Stations

Nearby Weather Stations

Station Location Temp. Windchill Dew Point Humidity Wind Precip. Elev Updated Type
                   

Watches & Warnings

There are currently no watches in effect.